createdAt,value
2023-02-19T00:04:44.461Z,84.22
2023-02-19T00:09:48.602Z,84.44
2023-02-19T00:14:56.190Z,84.40
2023-02-19T00:20:00.564Z,84.38
2023-02-19T00:25:04.575Z,84.35
2023-02-19T00:30:09.454Z,84.09
2023-02-19T00:35:14.782Z,83.97
2023-02-19T00:40:19.635Z,84.14
2023-02-19T00:45:25.232Z,84.25
2023-02-19T00:50:29.980Z,84.25
2023-02-19T00:55:34.739Z,84.29
2023-02-19T01:00:39.281Z,84.17
2023-02-19T01:05:43.760Z,84.17
2023-02-19T01:10:47.844Z,84.02
2023-02-19T01:15:52.974Z,83.96
2023-02-19T01:20:57.255Z,84.05
2023-02-19T01:26:05.900Z,84.09
2023-02-19T01:31:14.608Z,83.93
2023-02-19T01:36:20.816Z,83.98
2023-02-19T01:41:26.989Z,84.01
2023-02-19T01:46:38.946Z,83.70
2023-02-19T01:51:48.990Z,83.64
2023-02-19T01:56:55.258Z,83.45
2023-02-19T02:02:00.314Z,83.37
2023-02-19T02:07:26.982Z,83.43
2023-02-19T02:12:31.682Z,83.36
2023-02-19T02:18:03.304Z,83.16
2023-02-19T02:23:49.877Z,83.29
2023-02-19T02:29:15.745Z,83.20
2023-02-19T02:34:25.959Z,83.20
2023-02-19T02:39:33.975Z,83.24
2023-02-19T02:44:40.897Z,83.42
2023-02-19T02:50:05.442Z,83.33
2023-02-19T02:55:12.511Z,83.44
2023-02-19T03:00:17.409Z,83.43
2023-02-19T03:05:44.454Z,83.59
2023-02-19T03:11:28.953Z,83.52
2023-02-19T03:16:55.802Z,83.61
2023-02-19T03:22:12.072Z,83.55
2023-02-19T03:27:21.036Z,83.55
2023-02-19T03:32:31.516Z,83.42
2023-02-19T03:38:00.983Z,83.79
2023-02-19T03:43:13.498Z,83.58
2023-02-19T03:48:25.846Z,83.80
2023-02-19T03:53:46.930Z,83.74
2023-02-19T03:58:55.629Z,83.76
2023-02-19T04:04:41.430Z,83.71
2023-02-19T04:09:49.945Z,83.77
2023-02-19T04:15:02.702Z,83.67
2023-02-19T04:20:11.197Z,83.61
2023-02-19T04:25:16.633Z,83.58
2023-02-19T04:30:22.564Z,83.61
2023-02-19T04:35:27.295Z,83.68
2023-02-19T04:40:31.821Z,83.75
2023-02-19T04:45:38.507Z,83.83
2023-02-19T04:50:43.191Z,83.78
2023-02-19T04:55:48.750Z,83.93
2023-02-19T05:00:54.374Z,83.87
2023-02-19T05:05:58.236Z,84.13
2023-02-19T05:11:04.742Z,83.79
2023-02-19T05:16:17.108Z,83.94
2023-02-19T05:21:22.321Z,84.25
2023-02-19T05:26:27.195Z,84.17
2023-02-19T05:31:30.933Z,83.99
2023-02-19T05:36:37.960Z,84.15
2023-02-19T05:41:42.254Z,84.30
2023-02-19T05:46:46.747Z,84.00
2023-02-19T05:51:55.050Z,84.25
2023-02-19T05:56:59.576Z,83.88
2023-02-19T06:02:03.597Z,84.20
2023-02-19T06:07:09.122Z,84.21
2023-02-19T06:12:15.297Z,84.03
2023-02-19T06:17:20.115Z,84.11
2023-02-19T06:22:23.740Z,84.18
2023-02-19T06:27:27.672Z,84.64
2023-02-19T06:32:31.638Z,84.30
2023-02-19T06:37:35.614Z,84.20
2023-02-19T06:42:39.984Z,84.22
2023-02-19T06:47:44.027Z,84.46
2023-02-19T06:52:49.016Z,84.15
2023-02-19T06:57:53.181Z,84.27
2023-02-19T07:02:57.137Z,84.36
2023-02-19T07:08:02.325Z,84.32
2023-02-19T07:13:06.921Z,84.24
2023-02-19T07:18:11.833Z,84.29
2023-02-19T07:23:16.391Z,84.58
2023-02-19T07:28:20.592Z,84.60
2023-02-19T07:33:24.797Z,84.22
2023-02-19T07:38:29.362Z,84.22
2023-02-19T07:43:37.168Z,84.22
2023-02-19T07:48:43.490Z,83.94
2023-02-19T07:53:48.041Z,83.63
2023-02-19T07:58:51.754Z,83.58
2023-02-19T08:03:56.102Z,83.13
2023-02-19T08:09:00.387Z,83.15
2023-02-19T08:14:04.650Z,83.26
2023-02-19T08:19:08.448Z,83.18
2023-02-19T08:24:12.349Z,83.15
2023-02-19T08:29:16.476Z,82.74
2023-02-19T08:34:21.089Z,82.58
2023-02-19T08:39:25.284Z,82.62
2023-02-19T08:44:30.598Z,82.54
2023-02-19T08:49:34.960Z,82.16
2023-02-19T08:54:40.016Z,82.22
2023-02-19T08:59:44.993Z,82.00
2023-02-19T09:04:49.349Z,81.68
2023-02-19T09:09:54.092Z,81.84
2023-02-19T09:14:58.564Z,81.46
2023-02-19T09:20:02.727Z,81.62
2023-02-19T09:25:06.915Z,81.44
2023-02-19T09:30:10.993Z,81.35
2023-02-19T09:35:14.592Z,81.24
2023-02-19T09:40:22.140Z,81.13
2023-02-19T09:45:27.088Z,80.44
2023-02-19T09:50:41.660Z,80.08
2023-02-19T09:55:46.565Z,80.08
2023-02-19T10:00:51.873Z,79.68
2023-02-19T10:05:56.986Z,78.87
2023-02-19T10:11:03.925Z,78.46
2023-02-19T10:16:18.247Z,77.99
2023-02-19T10:21:28.700Z,77.77
2023-02-19T10:26:37.727Z,77.57
2023-02-19T10:31:43.838Z,76.98
2023-02-19T10:36:55.155Z,76.57
2023-02-19T10:42:01.184Z,75.78
2023-02-19T10:47:07.370Z,76.31
2023-02-19T10:52:28.230Z,76.07
2023-02-19T10:57:35.942Z,75.63
2023-02-19T11:02:42.311Z,74.78
2023-02-19T11:07:55.769Z,75.08
2023-02-19T11:13:04.610Z,75.20
2023-02-19T11:18:15.547Z,74.87
2023-02-19T11:23:25.410Z,74.71
2023-02-19T11:28:45.045Z,74.88
2023-02-19T11:34:16.188Z,74.46
2023-02-19T11:39:29.409Z,73.84
2023-02-19T11:45:09.756Z,73.64
2023-02-19T11:50:34.479Z,73.78
2023-02-19T11:55:47.363Z,73.34
2023-02-19T12:01:12.268Z,72.91
2023-02-19T12:06:54.326Z,72.37
2023-02-19T12:12:09.762Z,71.69
2023-02-19T12:17:19.911Z,71.90
2023-02-19T12:23:06.654Z,72.31
2023-02-19T12:28:54.858Z,71.29
2023-02-19T12:34:21.918Z,70.54
2023-02-19T12:39:37.303Z,70.32
2023-02-19T12:44:52.758Z,69.91
2023-02-19T12:50:20.306Z,69.36
2023-02-19T12:55:36.739Z,69.63
2023-02-19T13:00:55.062Z,69.49
2023-02-19T13:06:15.583Z,68.72
2023-02-19T13:11:36.648Z,68.06
2023-02-19T13:16:45.206Z,68.10
2023-02-19T13:22:52.231Z,68.17
2023-02-19T13:28:28.939Z,68.47
2023-02-19T13:33:58.196Z,68.15
2023-02-19T13:39:07.101Z,68.34
2023-02-19T13:44:22.981Z,67.39
2023-02-19T13:49:37.310Z,67.41
2023-02-19T13:54:47.229Z,67.45
2023-02-19T13:59:55.684Z,66.97
2023-02-19T14:05:08.538Z,67.00
2023-02-19T14:10:16.104Z,67.07
2023-02-19T14:15:40.747Z,66.69
2023-02-19T14:20:46.957Z,66.33
2023-02-19T14:25:57.465Z,65.98
2023-02-19T14:31:21.567Z,66.44
2023-02-19T14:36:35.846Z,66.66
2023-02-19T14:41:45.531Z,66.86
2023-02-19T14:46:58.907Z,67.02
2023-02-19T14:52:07.997Z,67.10
2023-02-19T14:57:23.279Z,66.95
2023-02-19T15:02:30.561Z,66.51
2023-02-19T15:07:36.774Z,66.76
2023-02-19T15:12:52.986Z,66.66
2023-02-19T15:17:59.696Z,67.02
2023-02-19T15:23:07.069Z,67.04
2023-02-19T15:28:26.687Z,66.67
2023-02-19T15:33:31.750Z,67.10
2023-02-19T15:38:37.053Z,66.98
2023-02-19T15:43:51.836Z,67.33
2023-02-19T15:49:03.964Z,67.41
2023-02-19T15:54:27.142Z,67.50
2023-02-19T15:59:47.794Z,67.56
2023-02-19T16:04:51.623Z,67.47
2023-02-19T16:10:20.842Z,67.57
2023-02-19T16:15:26.281Z,67.66
2023-02-19T16:20:33.489Z,67.77
2023-02-19T16:25:45.098Z,67.81
2023-02-19T16:31:01.411Z,67.81
2023-02-19T16:36:36.991Z,67.78
2023-02-19T16:41:41.212Z,67.85
2023-02-19T16:46:44.846Z,68.11
2023-02-19T16:51:49.581Z,68.17
2023-02-19T16:56:53.276Z,67.90
2023-02-19T17:01:58.074Z,68.31
2023-02-19T17:07:03.878Z,68.08
2023-02-19T17:12:16.813Z,68.12
2023-02-19T17:17:23.468Z,68.25
2023-02-19T17:22:28.251Z,68.02
2023-02-19T17:27:33.932Z,68.36
2023-02-19T17:32:37.724Z,68.49
2023-02-19T17:37:42.875Z,68.40
2023-02-19T17:42:47.391Z,68.56
2023-02-19T17:47:54.938Z,68.41
2023-02-19T17:53:01.623Z,68.59
2023-02-19T17:58:07.181Z,69.03
2023-02-19T18:03:14.039Z,68.65
2023-02-19T18:08:22.053Z,68.80
2023-02-19T18:13:29.577Z,68.93
2023-02-19T18:18:40.272Z,69.22
2023-02-19T18:23:48.609Z,69.19
2023-02-19T18:28:55.337Z,69.22
2023-02-19T18:34:00.924Z,69.44
2023-02-19T18:39:09.064Z,69.39
2023-02-19T18:44:18.877Z,69.55
2023-02-19T18:49:23.553Z,69.49
2023-02-19T18:54:29.861Z,69.68
2023-02-19T18:59:37.798Z,69.95
2023-02-19T19:04:49.850Z,70.26
2023-02-19T19:09:57.991Z,69.98
2023-02-19T19:15:04.311Z,70.40
2023-02-19T19:20:14.071Z,70.20
2023-02-19T19:25:20.376Z,70.70
2023-02-19T19:30:26.095Z,70.71
2023-02-19T19:35:32.005Z,70.88
2023-02-19T19:40:36.779Z,71.11
2023-02-19T19:45:43.174Z,70.94
2023-02-19T19:50:49.220Z,71.36
2023-02-19T19:55:55.321Z,71.24
2023-02-19T20:01:02.793Z,71.51
2023-02-19T20:06:09.435Z,71.40
2023-02-19T20:11:15.635Z,71.20
2023-02-19T20:16:26.744Z,71.47
2023-02-19T20:21:32.789Z,71.33
2023-02-19T20:26:37.593Z,71.34
2023-02-19T20:31:50.507Z,71.32
2023-02-19T20:36:57.649Z,71.25
2023-02-19T20:42:05.456Z,71.21
2023-02-19T20:47:12.814Z,71.15
2023-02-19T20:52:23.134Z,71.16
2023-02-19T20:57:27.407Z,71.29
2023-02-19T21:02:32.278Z,71.25
2023-02-19T21:07:36.743Z,71.19
2023-02-19T21:12:40.296Z,71.41
2023-02-19T21:17:47.313Z,71.27
2023-02-19T21:22:52.247Z,71.19
2023-02-19T21:27:56.578Z,71.90
2023-02-19T21:33:01.299Z,71.49
2023-02-19T21:38:05.322Z,71.79
2023-02-19T21:43:09.776Z,71.70
2023-02-19T21:48:13.276Z,71.65
2023-02-19T21:53:17.386Z,72.09
2023-02-19T21:58:22.459Z,71.68
2023-02-19T22:03:27.473Z,71.58
2023-02-19T22:08:31.984Z,71.99
2023-02-19T22:13:37.242Z,72.03
2023-02-19T22:18:50.726Z,71.80
2023-02-19T22:23:55.564Z,72.21
2023-02-19T22:29:03.251Z,72.05
2023-02-19T22:34:08.248Z,72.42
2023-02-19T22:39:25.257Z,72.10
2023-02-19T22:44:29.915Z,72.39
2023-02-19T22:49:34.938Z,72.72
2023-02-19T22:54:39.815Z,72.67
2023-02-19T22:59:44.710Z,72.36
2023-02-19T23:04:49.121Z,72.74
2023-02-19T23:09:54.937Z,72.55
2023-02-19T23:15:01.331Z,72.47
2023-02-19T23:20:07.106Z,72.63
2023-02-19T23:25:12.485Z,72.81
2023-02-19T23:30:18.017Z,72.92
2023-02-19T23:35:21.926Z,72.93
2023-02-19T23:40:26.949Z,73.06
2023-02-19T23:45:31.732Z,72.79
2023-02-19T23:50:36.255Z,72.78
2023-02-19T23:55:40.935Z,72.50
